Time;durP1;ratioP1;P1;durP2;ratioP2;P2;SDS_P1;SDS_P2;PMS_P1;PMS_P2;Temp;Humidity;BMP_temperature;BMP_pressure;BME280_temperature;BME280_humidity;BME280_pressure;Samples;Min_cycle;Max_cycle;Signal;HPM_P1;HPM_P2
2023/01/22 00:01:03;;;;;;;6.07;3.92;;;3.30;99.90;;;;;;4950566;29;20223;-48
2023/01/22 00:03:30;;;;;;;5.82;3.85;;;3.30;99.90;;;;;;4950736;29;20235;-48
2023/01/22 00:05:57;;;;;;;6.65;4.28;;;3.70;99.90;;;;;;4951421;28;20239;-45
2023/01/22 00:08:23;;;;;;;6.28;3.85;;;3.30;99.90;;;;;;5016329;28;20239;-48
2023/01/22 00:10:51;;;;;;;6.78;3.78;;;3.10;99.90;;;;;;4950742;28;20205;-46
2023/01/22 00:13:17;;;;;;;8.95;4.13;;;3.10;99.90;;;;;;4950649;29;20204;-46
2023/01/22 00:15:45;;;;;;;5.85;4.32;;;2.90;99.90;;;;;;4950764;28;20212;-47
2023/01/22 00:18:12;;;;;;;6.32;4.30;;;3.50;99.90;;;;;;4950415;28;20734;-47
2023/01/22 00:20:39;;;;;;;8.70;5.10;;;3.50;99.90;;;;;;4950758;28;20566;-46
2023/01/22 00:23:06;;;;;;;9.80;6.38;;;3.40;99.90;;;;;;4950693;28;20211;-47
2023/01/22 00:25:32;;;;;;;6.55;4.45;;;3.10;99.90;;;;;;4950303;28;20220;-47
2023/01/22 00:27:59;;;;;;;7.25;4.13;;;3.50;99.90;;;;;;4950125;29;20230;-47
2023/01/22 00:30:26;;;;;;;7.45;5.72;;;3.60;99.90;;;;;;4950216;28;20278;-46
2023/01/22 00:32:54;;;;;;;5.68;4.00;;;3.50;99.90;;;;;;4953745;28;20210;-46
2023/01/22 00:35:20;;;;;;;6.13;4.30;;;3.10;99.90;;;;;;4953660;28;20219;-46
2023/01/22 00:37:47;;;;;;;5.07;4.22;;;3.50;99.90;;;;;;4953554;29;20202;-47
2023/01/22 00:40:15;;;;;;;6.03;4.45;;;3.50;99.90;;;;;;5019602;28;20239;-48
2023/01/22 00:42:41;;;;;;;9.40;5.00;;;3.40;99.90;;;;;;5019780;28;20620;-47
2023/01/22 00:45:12;;;;;;;7.28;4.35;;;3.30;99.90;;;;;;5020124;28;20203;-47
2023/01/22 00:47:39;;;;;;;4.85;4.25;;;3.50;99.90;;;;;;5019686;28;20297;-47
2023/01/22 00:50:08;;;;;;;6.53;4.10;;;3.40;99.90;;;;;;5019940;28;20459;-47
2023/01/22 00:52:36;;;;;;;4.70;4.05;;;3.40;99.90;;;;;;5019937;28;20692;-47
2023/01/22 00:55:03;;;;;;;4.90;3.88;;;3.60;99.90;;;;;;4953719;28;20196;-47
2023/01/22 00:57:29;;;;;;;4.50;3.97;;;3.50;99.90;;;;;;5019995;28;20210;-47
2023/01/22 00:59:58;;;;;;;6.13;4.32;;;3.30;99.90;;;;;;5020031;28;20586;-47
2023/01/22 01:02:24;;;;;;;6.97;3.90;;;3.20;99.90;;;;;;5020144;28;20207;-47
2023/01/22 01:04:52;;;;;;;6.00;4.38;;;3.50;99.90;;;;;;5019956;28;20211;-46
2023/01/22 01:07:20;;;;;;;6.25;4.00;;;3.70;99.90;;;;;;4953197;28;20269;-46
2023/01/22 01:09:47;;;;;;;9.98;5.07;;;3.30;99.90;;;;;;4953233;28;20203;-46
2023/01/22 01:12:14;;;;;;;9.38;4.93;;;3.60;99.90;;;;;;5019773;28;20214;-46
2023/01/22 01:14:40;;;;;;;5.93;4.57;;;3.50;99.90;;;;;;5019886;28;20203;-46
2023/01/22 01:17:07;;;;;;;6.82;4.90;;;3.50;99.90;;;;;;4953181;28;20219;-47
2023/01/22 01:19:33;;;;;;;9.27;4.43;;;3.30;99.90;;;;;;5019174;28;20229;-46
2023/01/22 01:22:00;;;;;;;7.43;4.80;;;3.30;99.90;;;;;;4953017;28;20196;-47
2023/01/22 01:24:28;;;;;;;5.72;4.35;;;3.40;99.90;;;;;;5019475;28;20269;-46
2023/01/22 01:26:55;;;;;;;6.07;4.72;;;3.30;99.90;;;;;;4952741;28;20223;-46
2023/01/22 01:29:21;;;;;;;8.43;4.28;;;3.30;99.90;;;;;;4953009;28;20202;-47
2023/01/22 01:31:52;;;;;;;5.43;4.20;;;3.40;99.90;;;;;;5019265;28;20207;-47
2023/01/22 01:34:18;;;;;;;8.80;4.70;;;3.50;99.90;;;;;;4953109;28;20212;-46
2023/01/22 01:36:45;;;;;;;5.20;4.15;;;3.50;99.90;;;;;;4952651;28;20215;-47
2023/01/22 01:39:11;;;;;;;7.45;4.55;;;3.90;99.90;;;;;;4952545;28;20203;-47
2023/01/22 01:41:39;;;;;;;5.75;4.43;;;3.90;99.90;;;;;;5018967;28;20222;-46
2023/01/22 01:44:08;;;;;;;9.93;4.72;;;3.30;99.90;;;;;;4951718;28;20200;-46
2023/01/22 01:46:38;;;;;;;9.38;4.90;;;3.60;99.90;;;;;;5018930;28;20223;-46
2023/01/22 01:49:10;;;;;;;5.88;4.88;;;3.60;99.90;;;;;;5018212;28;20323;-47
2023/01/22 01:51:37;;;;;;;8.48;4.35;;;3.30;99.90;;;;;;4952527;29;20550;-46
2023/01/22 01:54:06;;;;;;;5.65;4.60;;;3.60;99.90;;;;;;4952561;29;20207;-46
2023/01/22 01:56:36;;;;;;;9.07;4.25;;;3.40;99.90;;;;;;4952645;28;20743;-47
2023/01/22 01:59:10;;;;;;;4.28;3.50;;;3.00;99.90;;;;;;5018627;28;20545;-46
2023/01/22 02:01:37;;;;;;;6.50;4.43;;;3.50;99.90;;;;;;4952485;28;20199;-46
2023/01/22 02:04:04;;;;;;;4.82;4.25;;;4.00;99.90;;;;;;5018476;28;20199;-46
2023/01/22 02:06:30;;;;;;;7.32;4.95;;;3.40;99.90;;;;;;5018175;28;20238;-46
2023/01/22 02:08:59;;;;;;;4.88;4.15;;;3.30;99.90;;;;;;5018056;28;20237;-46
2023/01/22 02:11:27;;;;;;;5.95;4.32;;;3.30;99.90;;;;;;4952268;28;20584;-46
2023/01/22 02:13:59;;;;;;;4.43;4.03;;;3.50;99.90;;;;;;4952324;28;20221;-47
2023/01/22 02:16:28;;;;;;;5.25;4.25;;;3.40;99.90;;;;;;5018358;28;20255;-46
2023/01/22 02:18:55;;;;;;;6.53;4.03;;;3.40;99.90;;;;;;5017803;28;20683;-47
2023/01/22 02:21:31;;;;;;;7.10;3.80;;;3.30;99.90;;;;;;5018193;28;20208;-46
2023/01/22 02:23:59;;;;;;;7.28;4.30;;;3.60;99.90;;;;;;4952196;28;20195;-46
2023/01/22 02:26:27;;;;;;;6.47;4.55;;;3.40;99.90;;;;;;5018206;28;20223;-46
2023/01/22 02:28:54;;;;;;;5.03;4.25;;;3.40;99.90;;;;;;5018071;28;20249;-46
2023/01/22 02:31:22;;;;;;;5.93;4.15;;;3.50;99.90;;;;;;5018265;28;20680;-47
2023/01/22 02:33:49;;;;;;;5.70;4.82;;;3.60;99.90;;;;;;5034565;28;20208;-47
2023/01/22 02:36:16;;;;;;;5.50;3.88;;;3.60;99.90;;;;;;5017967;28;20219;-46
2023/01/22 02:38:44;;;;;;;5.43;3.97;;;3.30;99.90;;;;;;5017757;28;20200;-47
2023/01/22 02:41:11;;;;;;;4.95;4.45;;;3.40;99.90;;;;;;5017726;28;20203;-47
2023/01/22 02:43:38;;;;;;;5.47;4.40;;;3.70;99.90;;;;;;5018185;28;20253;-46
2023/01/22 02:46:05;;;;;;;5.53;4.10;;;4.00;99.90;;;;;;5017730;28;20696;-46
2023/01/22 02:48:32;;;;;;;4.60;3.95;;;3.10;99.90;;;;;;5017572;28;20224;-46
2023/01/22 02:50:58;;;;;;;5.35;3.60;;;3.40;99.90;;;;;;5017832;28;20688;-46
2023/01/22 02:53:25;;;;;;;5.10;4.35;;;3.50;99.90;;;;;;5017472;28;20305;-46
2023/01/22 02:55:53;;;;;;;5.10;4.57;;;3.20;99.90;;;;;;5017882;28;20322;-47
2023/01/22 02:58:20;;;;;;;4.38;3.90;;;3.30;99.90;;;;;;5017456;28;20253;-46
2023/01/22 03:00:46;;;;;;;4.60;3.70;;;3.20;99.90;;;;;;4951633;29;20196;-47
2023/01/22 03:03:15;;;;;;;3.88;3.58;;;3.40;99.90;;;;;;5017819;28;20698;-46
2023/01/22 03:05:50;;;;;;;4.47;3.20;;;3.40;99.90;;;;;;5017597;28;20579;-46
2023/01/22 03:08:18;;;;;;;5.32;4.07;;;3.80;99.90;;;;;;5017334;28;20278;-48
2023/01/22 03:10:45;;;;;;;6.40;4.20;;;3.20;99.90;;;;;;5017546;28;20910;-46
2023/01/22 03:21:26;;;;;;;4.70;3.42;;;3.40;99.90;;;;;;4952151;28;20200;-46
2023/01/22 03:23:54;;;;;;;3.53;3.22;;;3.30;99.90;;;;;;4951775;28;20211;-47
2023/01/22 03:26:23;;;;;;;3.17;2.88;;;3.00;99.90;;;;;;5017602;28;20230;-46
2023/01/22 03:28:51;;;;;;;3.83;3.50;;;3.00;99.90;;;;;;4951142;28;20211;-48
2023/01/22 03:31:18;;;;;;;3.95;3.53;;;3.20;99.90;;;;;;5017375;28;20641;-46
2023/01/22 03:33:45;;;;;;;4.03;3.60;;;3.30;99.90;;;;;;5017263;28;20207;-46
2023/01/22 03:36:32;;;;;;;4.28;3.40;;;3.00;99.90;;;;;;5017090;28;20235;-47
2023/01/22 03:39:03;;;;;;;3.53;3.22;;;3.10;99.90;;;;;;5017042;28;20204;-46
2023/01/22 03:41:32;;;;;;;4.40;3.90;;;3.40;99.90;;;;;;5017275;28;20582;-47
2023/01/22 03:44:02;;;;;;;4.00;3.60;;;3.00;99.90;;;;;;5017250;28;20223;-47
2023/01/22 03:46:33;;;;;;;4.32;3.53;;;3.20;99.90;;;;;;5017721;28;20224;-46
2023/01/22 03:49:00;;;;;;;3.78;3.35;;;3.40;99.90;;;;;;5016910;28;20223;-47
2023/01/22 03:51:27;;;;;;;4.40;4.00;;;2.60;99.90;;;;;;5033978;28;20584;-46
2023/01/22 03:53:54;;;;;;;4.55;4.07;;;3.80;99.90;;;;;;5017681;28;20212;-46
2023/01/22 03:56:22;;;;;;;4.28;3.88;;;3.30;99.90;;;;;;5017131;28;20641;-47
2023/01/22 03:58:50;;;;;;;4.35;3.85;;;3.40;99.90;;;;;;5016712;28;20619;-47
2023/01/22 04:01:22;;;;;;;4.40;4.00;;;3.50;99.90;;;;;;5033864;28;20199;-47
2023/01/22 04:03:50;;;;;;;3.72;3.22;;;3.20;99.90;;;;;;5017221;28;20576;-46
2023/01/22 04:06:18;;;;;;;4.07;3.55;;;3.60;99.90;;;;;;5017779;28;20792;-47
2023/01/22 04:08:46;;;;;;;5.55;3.95;;;3.30;99.90;;;;;;4953685;28;20219;-46
2023/01/22 04:11:13;;;;;;;4.65;3.95;;;2.90;99.90;;;;;;4954356;29;20675;-47
2023/01/22 04:13:42;;;;;;;4.10;3.70;;;3.50;99.90;;;;;;5020846;28;20242;-46
2023/01/22 04:16:11;;;;;;;4.65;4.20;;;3.40;99.90;;;;;;5020699;28;20227;-45
2023/01/22 04:19:06;;;;;;;4.13;3.50;;;3.60;99.90;;;;;;5020202;28;20208;-45
2023/01/22 04:22:04;;;;;;;4.28;3.88;;;3.60;99.90;;;;;;4954331;28;20338;-46
2023/01/22 04:24:32;;;;;;;4.80;3.92;;;3.30;99.90;;;;;;5020626;28;20303;-46
2023/01/22 04:27:00;;;;;;;4.00;3.35;;;3.30;99.90;;;;;;5020338;28;20227;-47
2023/01/22 04:29:27;;;;;;;4.38;3.97;;;3.50;99.90;;;;;;5020021;28;20229;-47
2023/01/22 04:31:54;;;;;;;4.38;3.97;;;3.30;99.90;;;;;;5020769;28;20249;-46
2023/01/22 04:34:41;;;;;;;4.60;3.92;;;2.90;99.90;;;;;;4954229;29;20305;-46
2023/01/22 04:37:18;;;;;;;5.18;3.92;;;4.00;99.90;;;;;;5020477;28;20226;-46
2023/01/22 04:39:45;;;;;;;5.32;4.50;;;3.30;99.90;;;;;;5020009;28;20203;-47
2023/01/22 04:42:11;;;;;;;5.30;4.25;;;3.50;99.90;;;;;;5022009;28;20219;-47
2023/01/22 04:44:38;;;;;;;6.25;4.90;;;3.80;99.90;;;;;;5022213;28;20222;-46
2023/01/22 04:47:07;;;;;;;5.65;4.90;;;3.40;99.90;;;;;;5021271;28;20269;-45
2023/01/22 04:49:35;;;;;;;5.28;4.47;;;3.60;99.90;;;;;;5021745;28;20330;-46
2023/01/22 04:52:04;;;;;;;5.10;4.60;;;3.70;99.90;;;;;;5021972;28;20214;-47
2023/01/22 04:54:31;;;;;;;5.18;4.25;;;3.40;99.90;;;;;;5021698;28;20225;-47
2023/01/22 04:56:58;;;;;;;5.72;4.80;;;3.60;99.90;;;;;;4955457;28;20594;-46
2023/01/22 04:59:25;;;;;;;5.20;4.53;;;3.40;99.90;;;;;;5020739;28;20200;-47
2023/01/22 05:01:52;;;;;;;5.72;5.00;;;3.10;99.90;;;;;;5036557;28;20203;-47
2023/01/22 05:04:20;;;;;;;6.55;4.95;;;3.20;99.90;;;;;;5019693;28;20291;-48
2023/01/22 05:06:47;;;;;;;5.32;4.80;;;3.30;99.90;;;;;;5019825;28;20231;-46
2023/01/22 05:09:16;;;;;;;5.50;4.40;;;3.70;99.90;;;;;;5019399;28;20703;-47
2023/01/22 05:11:51;;;;;;;5.18;4.65;;;3.50;99.90;;;;;;5019837;28;20227;-46
2023/01/22 05:14:18;;;;;;;7.15;4.60;;;3.20;99.90;;;;;;4953379;29;20606;-47
2023/01/22 05:16:47;;;;;;;6.53;5.22;;;3.50;99.90;;;;;;5019399;28;20235;-46
2023/01/22 05:19:14;;;;;;;6.95;5.30;;;3.50;99.90;;;;;;5019091;28;20294;-47
2023/01/22 05:21:41;;;;;;;5.15;4.45;;;3.10;99.90;;;;;;5019620;28;20208;-46
2023/01/22 05:24:08;;;;;;;6.68;5.20;;;3.50;99.90;;;;;;4953433;29;20203;-46
2023/01/22 05:26:38;;;;;;;6.47;5.63;;;3.20;99.90;;;;;;5019600;28;20675;-46
2023/01/22 05:29:11;;;;;;;5.20;4.70;;;3.50;99.90;;;;;;5019635;28;20230;-46
2023/01/22 05:32:01;;;;;;;5.55;4.75;;;3.40;99.90;;;;;;5019463;28;20231;-46
2023/01/22 05:34:32;;;;;;;5.90;5.32;;;3.40;99.90;;;;;;5019504;28;20204;-47
2023/01/22 05:36:59;;;;;;;6.00;5.28;;;3.20;99.90;;;;;;5019567;28;20235;-46
2023/01/22 05:39:28;;;;;;;8.02;5.85;;;3.40;99.90;;;;;;5018955;28;20248;-46
2023/01/22 05:41:58;;;;;;;5.82;5.22;;;3.60;99.90;;;;;;5019325;28;20294;-47
2023/01/22 05:44:25;;;;;;;6.55;5.65;;;3.50;99.90;;;;;;5019268;28;20208;-47
2023/01/22 05:46:53;;;;;;;6.60;5.68;;;3.40;99.90;;;;;;5018937;28;20234;-46
2023/01/22 05:49:43;;;;;;;7.20;5.85;;;3.90;99.90;;;;;;5018570;28;20231;-47
2023/01/22 05:52:12;;;;;;;8.10;6.18;;;3.30;99.90;;;;;;4952701;28;20672;-46
2023/01/22 05:54:39;;;;;;;6.30;5.70;;;3.30;99.90;;;;;;5018891;28;20238;-47
2023/01/22 05:57:08;;;;;;;7.25;6.43;;;3.50;99.90;;;;;;5019204;28;20661;-47
2023/01/22 05:59:37;;;;;;;9.07;6.50;;;3.10;99.90;;;;;;5018496;28;20207;-47
2023/01/22 06:02:06;;;;;;;7.05;6.00;;;3.30;99.90;;;;;;5018353;28;20200;-46
2023/01/22 06:04:35;;;;;;;7.88;6.07;;;3.30;99.90;;;;;;5018328;28;20219;-47
2023/01/22 06:07:08;;;;;;;7.55;6.30;;;3.30;99.90;;;;;;5018552;28;20231;-48
2023/01/22 06:09:35;;;;;;;7.78;6.82;;;3.30;99.90;;;;;;5017900;28;20223;-48
2023/01/22 06:12:04;;;;;;;7.65;6.95;;;3.40;99.90;;;;;;5018255;28;20672;-48
2023/01/22 06:14:32;;;;;;;7.80;6.85;;;3.30;99.90;;;;;;5018108;28;20203;-48
2023/01/22 06:17:00;;;;;;;9.13;6.60;;;2.70;99.90;;;;;;5018166;28;20593;-47
2023/01/22 06:19:44;;;;;;;7.28;6.55;;;3.30;99.90;;;;;;4951946;28;20249;-49
2023/01/22 06:22:11;;;;;;;7.68;6.10;;;2.80;99.90;;;;;;4952185;28;20223;-48
2023/01/22 06:24:49;;;;;;;7.93;7.00;;;3.30;99.90;;;;;;5018041;28;20214;-48
2023/01/22 06:27:17;;;;;;;6.88;5.72;;;3.30;99.90;;;;;;5018257;28;20227;-48
2023/01/22 06:29:59;;;;;;;6.70;6.10;;;3.30;99.90;;;;;;5017050;28;20219;-48
2023/01/22 06:32:26;;;;;;;6.97;6.28;;;2.90;99.90;;;;;;5017935;28;20752;-48
2023/01/22 06:34:53;;;;;;;8.90;7.15;;;3.30;99.90;;;;;;5018057;28;20195;-48
2023/01/22 06:37:21;;;;;;;6.32;5.72;;;3.30;99.90;;;;;;5017838;28;20227;-48
2023/01/22 06:39:48;;;;;;;7.57;6.85;;;3.30;99.90;;;;;;5017674;28;20207;-48
2023/01/22 06:42:21;;;;;;;6.97;6.20;;;3.30;99.90;;;;;;5017967;28;20294;-48
2023/01/22 06:44:49;;;;;;;7.50;6.80;;;3.20;99.90;;;;;;4951769;28;20631;-48
2023/01/22 06:47:18;;;;;;;7.03;6.25;;;3.40;99.90;;;;;;5017859;28;20306;-47
2023/01/22 06:49:45;;;;;;;7.93;7.18;;;3.50;99.90;;;;;;4951691;28;20234;-49
2023/01/22 06:52:11;;;;;;;7.05;6.35;;;3.40;99.90;;;;;;4951773;28;20203;-48
2023/01/22 06:54:38;;;;;;;7.90;6.95;;;3.10;99.90;;;;;;4951513;29;20218;-48
2023/01/22 06:57:05;;;;;;;7.10;6.40;;;3.30;99.90;;;;;;5017463;28;20227;-48
2023/01/22 06:59:34;;;;;;;7.55;6.55;;;3.50;99.90;;;;;;5017195;28;20199;-48
2023/01/22 07:02:01;;;;;;;7.68;6.88;;;3.70;99.90;;;;;;4951519;28;20211;-48
2023/01/22 07:04:29;;;;;;;8.95;6.95;;;3.70;99.90;;;;;;4951668;28;20278;-47
2023/01/22 07:06:55;;;;;;;8.48;7.20;;;3.60;99.90;;;;;;4951389;28;20237;-48
2023/01/22 07:09:22;;;;;;;7.55;6.75;;;3.00;99.90;;;;;;4950969;28;20560;-48
2023/01/22 07:11:49;;;;;;;7.82;7.13;;;3.20;99.90;;;;;;4951188;29;20241;-48
2023/01/22 07:14:16;;;;;;;7.00;6.30;;;3.50;99.90;;;;;;4951431;28;20206;-48
2023/01/22 07:16:43;;;;;;;7.88;7.07;;;3.00;99.90;;;;;;4951060;28;20223;-48
2023/01/22 07:19:09;;;;;;;9.20;6.82;;;3.50;99.90;;;;;;4950812;28;20661;-48
2023/01/22 07:21:37;;;;;;;9.85;7.45;;;3.30;99.90;;;;;;4951394;28;20694;-48
2023/01/22 07:24:04;;;;;;;7.00;6.30;;;3.40;99.90;;;;;;4951472;28;20207;-47
2023/01/22 07:26:31;;;;;;;7.53;6.70;;;3.30;99.90;;;;;;4950885;28;20223;-48
2023/01/22 07:28:57;;;;;;;7.43;6.72;;;3.60;99.90;;;;;;4950740;28;20219;-48
2023/01/22 07:31:24;;;;;;;10.32;6.75;;;3.50;99.90;;;;;;4951136;28;20748;-48
2023/01/22 07:33:51;;;;;;;8.18;7.35;;;3.50;99.90;;;;;;4951157;28;20261;-47
2023/01/22 07:36:17;;;;;;;8.88;6.80;;;3.30;99.90;;;;;;4950941;28;20223;-48
2023/01/22 07:38:45;;;;;;;7.38;6.68;;;3.00;99.90;;;;;;4951210;29;20221;-49
2023/01/22 07:41:12;;;;;;;8.10;7.20;;;3.50;99.90;;;;;;4953639;29;20664;-49
2023/01/22 07:43:38;;;;;;;9.95;7.43;;;3.40;99.90;;;;;;4954656;28;20210;-50
2023/01/22 07:46:06;;;;;;;7.05;6.35;;;3.60;99.90;;;;;;4954100;28;20222;-48
2023/01/22 07:48:32;;;;;;;6.50;5.90;;;2.90;99.90;;;;;;4954165;28;20664;-48
2023/01/22 07:51:00;;;;;;;7.00;6.30;;;3.60;99.90;;;;;;5020682;28;20230;-48
2023/01/22 07:53:26;;;;;;;7.53;6.55;;;3.70;99.90;;;;;;4955495;29;20680;-48
2023/01/22 07:55:55;;;;;;;7.10;6.40;;;3.70;99.90;;;;;;4955417;28;20219;-48
2023/01/22 07:58:21;;;;;;;9.25;6.53;;;3.60;99.90;;;;;;4953956;29;20199;-49
2023/01/22 08:00:49;;;;;;;8.70;7.07;;;3.80;99.90;;;;;;4954159;28;20195;-49
2023/01/22 08:03:15;;;;;;;7.38;6.53;;;3.60;99.90;;;;;;5020838;28;20222;-48
2023/01/22 08:05:43;;;;;;;8.52;6.93;;;3.60;99.90;;;;;;4953934;28;20235;-49
2023/01/22 08:08:13;;;;;;;7.32;6.50;;;3.20;99.90;;;;;;4953761;28;20222;-50
2023/01/22 08:10:40;;;;;;;7.72;6.53;;;3.80;99.90;;;;;;4954078;28;20227;-48
2023/01/22 08:13:08;;;;;;;7.93;6.90;;;3.40;99.90;;;;;;4954080;28;20200;-49
2023/01/22 08:15:35;;;;;;;7.57;6.28;;;3.60;99.90;;;;;;5020755;28;20234;-49
2023/01/22 08:18:01;;;;;;;6.93;5.85;;;3.70;99.90;;;;;;4953817;28;20274;-49
2023/01/22 08:20:28;;;;;;;7.85;6.57;;;3.90;99.90;;;;;;4953642;29;20195;-50
2023/01/22 08:22:58;;;;;;;8.48;6.90;;;3.50;99.90;;;;;;4954050;28;20226;-50
2023/01/22 08:25:24;;;;;;;6.57;5.88;;;3.80;99.90;;;;;;4953767;28;20254;-49
2023/01/22 08:27:51;;;;;;;7.00;6.35;;;3.80;99.90;;;;;;5020373;28;20207;-49
2023/01/22 08:30:19;;;;;;;8.45;7.10;;;3.30;99.90;;;;;;4953119;29;20223;-47
2023/01/22 08:32:46;;;;;;;7.47;6.70;;;3.90;99.90;;;;;;4953640;29;20203;-48
2023/01/22 08:35:13;;;;;;;9.15;6.85;;;4.30;99.90;;;;;;4953375;28;20208;-48
2023/01/22 08:37:42;;;;;;;6.75;6.05;;;3.80;99.90;;;;;;4953503;29;20200;-48
2023/01/22 08:40:10;;;;;;;8.77;7.15;;;3.60;99.90;;;;;;4953240;28;20192;-48
2023/01/22 08:42:37;;;;;;;7.40;6.47;;;4.00;99.90;;;;;;4953731;29;20238;-49
2023/01/22 08:45:04;;;;;;;8.38;6.65;;;3.60;99.90;;;;;;4953459;28;20211;-48
2023/01/22 08:47:32;;;;;;;8.00;7.18;;;4.00;99.90;;;;;;4953305;29;20199;-49
2023/01/22 08:50:00;;;;;;;8.60;7.10;;;3.80;99.90;;;;;;4953272;28;20237;-49
2023/01/22 08:52:27;;;;;;;8.85;6.97;;;3.70;99.90;;;;;;4952709;28;20195;-48
2023/01/22 08:54:54;;;;;;;8.93;7.57;;;3.90;99.90;;;;;;4953337;28;20210;-49
2023/01/22 08:57:20;;;;;;;11.38;8.35;;;3.70;99.90;;;;;;4953003;29;20210;-47
2023/01/22 08:59:47;;;;;;;8.02;6.93;;;3.80;99.90;;;;;;4952854;28;20570;-47
2023/01/22 09:02:14;;;;;;;9.10;7.95;;;3.90;99.90;;;;;;4953292;28;20570;-49
2023/01/22 09:04:42;;;;;;;8.65;7.93;;;3.50;99.90;;;;;;4953196;28;20605;-48
2023/01/22 09:07:09;;;;;;;7.43;6.72;;;4.10;99.90;;;;;;5019366;28;20231;-48
2023/01/22 09:09:36;;;;;;;8.70;7.82;;;3.90;99.90;;;;;;4952598;28;20226;-48
2023/01/22 09:12:02;;;;;;;9.90;8.32;;;3.80;99.90;;;;;;4953266;29;20191;-48
2023/01/22 09:14:29;;;;;;;9.07;7.75;;;3.80;99.90;;;;;;4953060;28;20275;-48
2023/01/22 09:16:56;;;;;;;8.55;7.45;;;4.00;99.90;;;;;;4952923;28;20633;-48
2023/01/22 09:19:22;;;;;;;8.70;7.80;;;4.00;99.90;;;;;;4953031;28;20195;-48
2023/01/22 09:21:50;;;;;;;8.90;7.68;;;4.10;99.90;;;;;;4953074;28;20203;-48
2023/01/22 09:24:17;;;;;;;11.02;8.40;;;3.90;99.90;;;;;;4952960;28;20199;-48
2023/01/22 09:26:43;;;;;;;9.55;8.15;;;3.90;99.90;;;;;;4952838;28;20699;-49
2023/01/22 09:29:10;;;;;;;9.27;8.30;;;4.00;99.90;;;;;;5018528;28;20207;-49
2023/01/22 09:31:37;;;;;;;9.25;8.20;;;3.30;99.90;;;;;;4952620;28;20207;-48
2023/01/22 09:34:04;;;;;;;8.35;7.50;;;4.00;99.90;;;;;;4952813;28;20196;-48
2023/01/22 09:36:31;;;;;;;10.15;8.82;;;4.00;99.90;;;;;;4952739;28;20218;-47
2023/01/22 09:38:59;;;;;;;8.95;8.05;;;4.10;99.90;;;;;;4953221;28;20562;-48
2023/01/22 09:41:28;;;;;;;10.35;8.20;;;4.50;99.90;;;;;;4953123;28;20202;-48
2023/01/22 09:43:59;;;;;;;10.80;8.45;;;3.70;99.90;;;;;;4952830;29;20207;-48
2023/01/22 09:46:29;;;;;;;14.80;8.07;;;3.90;99.90;;;;;;4952159;28;20219;-48
2023/01/22 09:49:01;;;;;;;9.70;8.00;;;3.80;99.90;;;;;;4952285;28;20212;-48
2023/01/22 09:51:27;;;;;;;10.38;7.97;;;3.90;99.90;;;;;;4952803;29;20298;-50
2023/01/22 09:53:58;;;;;;;11.65;9.27;;;4.00;99.90;;;;;;4952708;28;20206;-47
2023/01/22 09:56:36;;;;;;;11.32;7.72;;;3.90;99.90;;;;;;4952330;28;20254;-48
2023/01/22 09:59:06;;;;;;;8.73;7.75;;;4.40;99.90;;;;;;4952097;28;20370;-48
2023/01/22 10:01:33;;;;;;;10.13;8.57;;;4.20;99.90;;;;;;4952688;29;20195;-47
2023/01/22 10:04:03;;;;;;;9.77;7.68;;;4.10;99.90;;;;;;5017974;28;20199;-47
2023/01/22 10:06:30;;;;;;;10.68;8.63;;;3.40;99.90;;;;;;4952031;28;20237;-48
2023/01/22 10:09:08;;;;;;;11.65;8.98;;;3.40;99.90;;;;;;4951659;28;20220;-47
2023/01/22 10:11:36;;;;;;;10.07;7.95;;;4.00;99.90;;;;;;5017906;28;20233;-48
2023/01/22 10:14:07;;;;;;;12.77;9.35;;;4.10;99.90;;;;;;4952137;29;20231;-48
2023/01/22 10:16:34;;;;;;;13.82;10.13;;;4.00;99.90;;;;;;4951966;28;20708;-47
2023/01/22 10:19:05;;;;;;;10.90;9.55;;;4.10;99.90;;;;;;4951385;28;20672;-48
2023/01/22 10:21:37;;;;;;;14.77;10.82;;;3.60;99.90;;;;;;4951973;28;20217;-48
2023/01/22 10:24:03;;;;;;;12.27;10.05;;;4.10;99.90;;;;;;4951901;28;20210;-48
2023/01/22 10:26:37;;;;;;;10.25;9.15;;;4.20;99.90;;;;;;4951697;28;20295;-47
2023/01/22 10:29:06;;;;;;;10.40;9.30;;;4.40;99.90;;;;;;4951761;28;20208;-49
2023/01/22 10:31:35;;;;;;;11.48;9.90;;;4.10;99.90;;;;;;4951344;29;20220;-48
2023/01/22 10:34:03;;;;;;;11.60;9.23;;;4.20;99.90;;;;;;4951625;29;20208;-48
2023/01/22 10:36:31;;;;;;;12.15;10.07;;;4.00;99.90;;;;;;4951534;28;20765;-46
2023/01/22 10:39:05;;;;;;;11.80;9.25;;;4.10;99.90;;;;;;4950727;29;20206;-48
2023/01/22 10:41:32;;;;;;;11.10;9.27;;;4.30;99.90;;;;;;4951664;29;20623;-48
2023/01/22 10:44:10;;;;;;;10.82;9.18;;;4.10;99.90;;;;;;4951433;28;20337;-48
2023/01/22 10:46:37;;;;;;;11.05;8.52;;;4.30;99.90;;;;;;4951536;28;20226;-47
2023/01/22 10:49:07;;;;;;;10.50;9.18;;;4.20;99.90;;;;;;4950918;29;20203;-47
2023/01/22 10:51:37;;;;;;;12.30;9.85;;;4.10;99.90;;;;;;4951471;28;20250;-47
2023/01/22 10:54:14;;;;;;;11.25;9.13;;;4.10;99.90;;;;;;4951422;29;20213;-48
2023/01/22 10:56:41;;;;;;;12.18;9.32;;;3.90;99.90;;;;;;4951527;28;20589;-47
2023/01/22 10:59:21;;;;;;;12.05;9.75;;;4.10;99.90;;;;;;4951780;28;20740;-48
2023/01/22 11:01:49;;;;;;;11.50;9.13;;;4.10;99.90;;;;;;5017321;28;20207;-48
2023/01/22 11:04:22;;;;;;;11.98;9.48;;;4.20;99.90;;;;;;4951620;29;20207;-48
2023/01/22 11:06:52;;;;;;;13.70;10.63;;;4.10;99.90;;;;;;4950899;28;20227;-49
2023/01/22 11:09:22;;;;;;;10.77;8.70;;;4.10;99.90;;;;;;4950941;28;20196;-48
2023/01/22 11:12:07;;;;;;;11.02;9.88;;;4.80;99.90;;;;;;4951103;28;20298;-48
2023/01/22 11:14:37;;;;;;;11.18;9.10;;;4.40;99.90;;;;;;4951506;28;20204;-49
2023/01/22 11:17:11;;;;;;;11.05;9.82;;;4.40;99.90;;;;;;4951204;28;20222;-48
2023/01/22 11:19:43;;;;;;;12.13;9.75;;;4.30;99.90;;;;;;4950549;28;20218;-48
2023/01/22 11:22:21;;;;;;;11.75;10.55;;;4.70;99.90;;;;;;4951652;28;20196;-48
2023/01/22 11:24:48;;;;;;;10.55;9.30;;;4.50;99.90;;;;;;4951255;28;20222;-48
2023/01/22 11:27:40;;;;;;;10.43;8.65;;;4.40;99.90;;;;;;4951117;28;20223;-49
2023/01/22 11:30:47;;;;;;;11.85;10.32;;;4.60;99.90;;;;;;4951007;28;20241;-49
2023/01/22 11:33:28;;;;;;;11.40;9.93;;;4.50;99.90;;;;;;4951015;29;20648;-49
2023/01/22 11:36:00;;;;;;;13.93;11.40;;;4.50;99.90;;;;;;4950973;28;20746;-49
2023/01/22 11:38:36;;;;;;;10.57;9.57;;;4.30;99.90;;;;;;4950364;29;20283;-49
2023/01/22 11:41:26;;;;;;;11.02;9.90;;;4.30;99.90;;;;;;4950830;29;20199;-48
2023/01/22 11:44:24;;;;;;;10.55;9.13;;;4.20;99.90;;;;;;4950391;28;20243;-48
2023/01/22 11:47:13;;;;;;;10.27;9.02;;;4.20;99.90;;;;;;4950469;28;20226;-50
2023/01/22 11:49:52;;;;;;;11.55;8.82;;;4.50;99.90;;;;;;4950030;29;20200;-49
2023/01/22 11:52:29;;;;;;;11.55;9.68;;;4.20;99.90;;;;;;4950950;28;20234;-49
2023/01/22 11:55:17;;;;;;;13.55;10.75;;;3.90;99.90;;;;;;4950449;28;20203;-49
2023/01/22 11:57:50;;;;;;;10.55;9.45;;;4.40;99.90;;;;;;4949778;29;20222;-49
2023/01/22 12:00:33;;;;;;;12.65;10.80;;;4.30;99.90;;;;;;4950353;29;20203;-48
2023/01/22 12:03:25;;;;;;;13.30;9.95;;;4.30;99.90;;;;;;4950842;28;20208;-48
2023/01/22 12:06:05;;;;;;;12.45;10.00;;;4.40;99.90;;;;;;4951112;28;20239;-47
2023/01/22 12:08:43;;;;;;;13.00;10.60;;;4.20;99.90;;;;;;4950237;28;20679;-47
2023/01/22 12:11:34;;;;;;;11.90;9.55;;;3.80;99.90;;;;;;4950185;29;20226;-46
2023/01/22 12:14:32;;;;;;;13.15;11.55;;;4.40;99.90;;;;;;4953245;28;20223;-46
2023/01/22 12:17:09;;;;;;;13.05;11.10;;;4.40;99.90;;;;;;4951041;28;20231;-47
2023/01/22 12:20:07;;;;;;;12.75;10.45;;;4.20;99.90;;;;;;4949748;29;20206;-48
2023/01/22 12:22:40;;;;;;;12.48;10.68;;;4.30;99.90;;;;;;4950731;28;20206;-47
2023/01/22 12:25:17;;;;;;;12.40;10.20;;;4.50;99.90;;;;;;4950083;28;20211;-47
2023/01/22 12:27:49;;;;;;;13.05;10.38;;;4.20;99.90;;;;;;4952296;28;20206;-47
2023/01/22 12:30:21;;;;;;;16.83;10.68;;;4.10;99.90;;;;;;4953245;28;20209;-47
2023/01/22 12:32:52;;;;;;;12.23;10.38;;;4.10;99.90;;;;;;4953770;28;20210;-47
2023/01/22 12:35:24;;;;;;;15.52;12.10;;;4.30;99.90;;;;;;4953821;28;20226;-47
2023/01/22 12:38:00;;;;;;;14.75;10.60;;;4.10;99.90;;;;;;4953336;28;20227;-46
2023/01/22 12:41:04;;;;;;;15.07;10.93;;;4.20;99.90;;;;;;4954571;28;20203;-47
2023/01/22 12:43:37;;;;;;;15.77;12.13;;;4.20;99.90;;;;;;4953495;28;20206;-48
2023/01/22 12:46:11;;;;;;;14.95;12.25;;;4.20;99.90;;;;;;4953771;28;20783;-48
2023/01/22 12:48:45;;;;;;;15.88;12.23;;;4.60;99.90;;;;;;4953455;28;20191;-47
2023/01/22 12:51:25;;;;;;;14.98;12.68;;;4.20;99.90;;;;;;4953826;28;20707;-48
2023/01/22 12:53:52;;;;;;;21.45;13.73;;;4.50;99.90;;;;;;4954151;28;20207;-47
2023/01/22 12:56:30;;;;;;;14.13;12.65;;;4.20;99.90;;;;;;4953827;28;20219;-48
2023/01/22 12:58:57;;;;;;;18.05;13.25;;;4.10;99.90;;;;;;4954276;28;20209;-48
2023/01/22 13:01:31;;;;;;;19.90;14.90;;;3.50;99.90;;;;;;4954006;28;20227;-48
2023/01/22 13:03:59;;;;;;;16.25;11.85;;;4.20;99.90;;;;;;4954699;28;20211;-49
2023/01/22 13:06:33;;;;;;;18.60;13.02;;;4.30;99.90;;;;;;4954391;28;20254;-48
2023/01/22 13:09:01;;;;;;;14.80;12.23;;;4.10;99.90;;;;;;4953088;28;20214;-49
2023/01/22 13:11:31;;;;;;;14.35;11.85;;;3.60;99.90;;;;;;4953086;28;20222;-49
2023/01/22 13:14:06;;;;;;;17.60;13.15;;;4.00;99.90;;;;;;4953283;28;20203;-49
2023/01/22 13:16:35;;;;;;;16.27;12.15;;;4.50;99.90;;;;;;4953752;28;20226;-49